Time;durP1;ratioP1;P1;durP2;ratioP2;P2;SDS_P1;SDS_P2;PMS_P1;PMS_P2;Temp;Humidity;BMP_temperature;BMP_pressure;BME280_temperature;BME280_humidity;BME280_pressure;Samples;Min_cycle;Max_cycle;Signal;HPM_P1;HPM_P2
2023/05/23 00:00:21;;;;;;;17.52;6.63;;;;;;;12.83;63.06;93758.44;4949596;28;20391;-75
2023/05/23 00:02:47;;;;;;;8.75;5.65;;;;;;;12.80;63.00;93761.78;4951109;28;20035;-73
2023/05/23 00:05:14;;;;;;;10.60;6.30;;;;;;;12.70;63.22;93754.94;4945326;28;20502;-74
2023/05/23 00:07:39;;;;;;;7.75;5.10;;;;;;;12.68;63.37;93748.38;4942899;28;20070;-75
2023/05/23 00:10:05;;;;;;;6.25;4.88;;;;;;;12.77;62.86;93743.72;4946421;28;20578;-74
2023/05/23 00:12:32;;;;;;;8.82;4.72;;;;;;;12.71;63.02;93739.72;4948373;28;20042;-74
2023/05/23 00:14:58;;;;;;;4.45;3.50;;;;;;;12.56;63.57;93727.75;4946305;28;20113;-74
2023/05/23 00:17:25;;;;;;;6.10;3.80;;;;;;;12.52;63.55;93724.13;4948544;28;20499;-75
2023/05/23 00:19:51;;;;;;;5.45;2.95;;;;;;;12.60;62.75;93731.34;4950360;28;20043;-74
2023/05/23 00:22:17;;;;;;;4.45;3.10;;;;;;;12.46;63.14;93722.81;4949934;28;20039;-75
2023/05/23 00:24:43;;;;;;;4.32;2.50;;;;;;;12.38;63.97;93732.41;4950849;28;20236;-73
2023/05/23 00:27:08;;;;;;;6.68;3.85;;;;;;;12.49;63.95;93732.81;4947833;28;20183;-75
2023/05/23 00:29:33;;;;;;;3.80;2.80;;;;;;;12.48;63.49;93728.56;4949783;28;20114;-74
2023/05/23 00:31:59;;;;;;;8.02;3.55;;;;;;;12.51;64.03;93735.16;4949097;28;20038;-75
2023/05/23 00:34:24;;;;;;;4.93;3.03;;;;;;;12.52;63.32;93720.72;4948635;28;20634;-75
2023/05/23 00:36:50;;;;;;;3.35;2.75;;;;;;;12.60;63.32;93734.00;4948372;28;20042;-75
2023/05/23 00:39:18;;;;;;;3.03;2.72;;;;;;;12.39;63.27;93725.97;4950047;28;20050;-75
2023/05/23 00:41:45;;;;;;;4.50;2.25;;;;;;;12.46;63.34;93734.25;4949117;28;20939;-74
2023/05/23 00:44:11;;;;;;;2.65;2.45;;;;;;;12.50;63.43;93739.72;4949327;28;20054;-75
2023/05/23 00:46:36;;;;;;;3.70;2.70;;;;;;;12.39;63.48;93733.19;4948678;28;20035;-74
2023/05/23 00:49:02;;;;;;;6.50;3.45;;;;;;;12.37;63.91;93743.44;4949713;28;20039;-74
2023/05/23 00:51:28;;;;;;;5.07;3.60;;;;;;;12.40;63.92;93740.09;4950263;28;20081;-74
2023/05/23 00:53:54;;;;;;;8.77;4.85;;;;;;;12.41;63.87;93741.66;4949552;28;20038;-74
2023/05/23 00:56:20;;;;;;;13.38;7.75;;;;;;;12.47;63.90;93740.34;4949276;28;20043;-73
2023/05/23 00:58:46;;;;;;;17.25;9.35;;;;;;;12.50;63.57;93745.03;4950342;28;20556;-74
2023/05/23 01:01:12;;;;;;;16.40;8.23;;;;;;;12.39;63.89;93744.66;4948811;28;20041;-73
2023/05/23 01:03:38;;;;;;;13.05;8.02;;;;;;;12.49;63.76;93738.13;4949241;28;20039;-75
2023/05/23 01:06:03;;;;;;;16.50;7.35;;;;;;;12.42;63.65;93716.53;4948907;28;20394;-73
2023/05/23 01:08:28;;;;;;;13.32;7.35;;;;;;;12.42;63.39;93721.88;4949379;28;20109;-76
2023/05/23 01:10:59;;;;;;;6.93;4.32;;;;;;;12.42;63.92;93737.88;4949369;28;20105;-74
2023/05/23 01:13:42;;;;;;;10.25;6.60;;;;;;;12.47;63.71;93751.00;4950172;28;20057;-75
2023/05/23 01:16:27;;;;;;;14.23;7.25;;;;;;;12.41;64.08;93744.34;4949871;28;20051;-75
2023/05/23 01:19:07;;;;;;;12.65;7.53;;;;;;;12.55;63.43;93752.84;4950162;28;20070;-74
2023/05/23 01:21:34;;;;;;;19.77;11.07;;;;;;;12.44;63.41;93757.00;4948162;28;20089;-74
2023/05/23 01:24:26;;;;;;;16.63;9.45;;;;;;;12.36;63.96;93750.66;4949506;28;20030;-74
2023/05/23 01:27:44;;;;;;;10.18;7.55;;;;;;;12.42;63.44;93752.00;4946344;28;20035;-74
2023/05/23 01:30:12;;;;;;;15.38;10.15;;;;;;;12.39;63.80;93741.97;4894743;29;20047;-75
2023/05/23 01:32:39;;;;;;;15.18;10.38;;;;;;;12.39;63.99;93746.53;4912611;29;20032;-74
2023/05/23 01:35:05;;;;;;;14.25;8.80;;;;;;;12.36;63.98;93717.88;4924961;28;20492;-75
2023/05/23 01:37:30;;;;;;;15.48;10.93;;;;;;;12.41;64.27;93726.44;4949037;28;20043;-75
2023/05/23 01:39:56;;;;;;;30.38;16.05;;;;;;;12.31;63.98;93729.50;4950560;28;20047;-75
2023/05/23 01:42:21;;;;;;;29.45;15.48;;;;;;;12.39;63.36;93738.53;4949602;28;20062;-75
2023/05/23 01:44:47;;;;;;;23.38;14.18;;;;;;;12.40;63.82;93734.75;4949650;28;20030;-75
2023/05/23 01:47:14;;;;;;;17.77;11.45;;;;;;;12.41;63.64;93737.13;4949904;28;20130;-75
2023/05/23 01:49:40;;;;;;;15.65;10.13;;;;;;;12.33;64.41;93737.16;4948322;28;20059;-74
2023/05/23 01:52:10;;;;;;;17.77;9.55;;;;;;;12.35;64.33;93743.75;4953980;28;20516;-75
2023/05/23 01:54:37;;;;;;;18.65;10.93;;;;;;;12.38;63.97;93735.09;4953860;28;20042;-74
2023/05/23 01:57:04;;;;;;;19.25;11.10;;;;;;;12.29;64.04;93717.59;4953212;28;20373;-74
2023/05/23 01:59:29;;;;;;;21.88;12.18;;;;;;;12.35;64.14;93725.06;4949333;28;21019;-74
2023/05/23 02:01:55;;;;;;;29.92;16.65;;;;;;;12.28;64.48;93721.34;4953436;28;20034;-75
2023/05/23 02:04:20;;;;;;;47.50;23.90;;;;;;;12.31;64.25;93723.38;4955408;28;20039;-75
2023/05/23 02:06:46;;;;;;;53.60;32.50;;;;;;;12.27;64.60;93727.81;4951609;28;20038;-74
2023/05/23 02:09:11;;;;;;;52.53;31.95;;;;;;;12.23;64.70;93724.22;4952341;28;20152;-75
2023/05/23 02:11:36;;;;;;;47.97;27.17;;;;;;;12.25;64.77;93727.34;4952500;28;20090;-75
2023/05/23 02:14:02;;;;;;;54.33;31.10;;;;;;;12.27;63.40;93736.56;4967402;28;20039;-75
2023/05/23 02:16:28;;;;;;;38.47;23.50;;;;;;;12.18;62.75;93727.84;4953819;28;20049;-74
2023/05/23 02:18:55;;;;;;;35.35;21.23;;;;;;;11.99;63.36;93717.63;4953947;28;20035;-75
2023/05/23 02:21:21;;;;;;;32.25;19.40;;;;;;;12.02;64.10;93741.00;4948910;28;20074;-74
2023/05/23 02:23:47;;;;;;;22.10;11.82;;;;;;;12.08;63.72;93732.81;4951434;28;20246;-73
2023/05/23 02:26:12;;;;;;;21.27;11.20;;;;;;;12.02;64.06;93726.88;4950261;28;20105;-75
2023/05/23 02:28:38;;;;;;;18.83;11.18;;;;;;;12.08;63.94;93733.56;4947584;28;20050;-74
2023/05/23 02:31:03;;;;;;;15.45;10.73;;;;;;;12.01;63.87;93715.44;4965637;28;20556;-75
2023/05/23 02:33:28;;;;;;;21.75;12.32;;;;;;;12.08;63.91;93727.47;4950709;28;20043;-73
2023/05/23 02:35:54;;;;;;;26.02;15.65;;;;;;;11.95;64.15;93710.63;4954408;28;20026;-76
2023/05/23 02:38:19;;;;;;;34.22;21.33;;;;;;;11.91;63.99;93707.81;4952049;28;20071;-75
2023/05/23 02:40:45;;;;;;;36.97;21.33;;;;;;;12.01;63.79;93720.78;4953182;28;20042;-75
2023/05/23 02:43:10;;;;;;;30.92;18.55;;;;;;;11.93;64.13;93708.25;4951281;28;20039;-75
2023/05/23 02:45:36;;;;;;;29.50;16.05;;;;;;;12.01;63.59;93718.09;4951346;28;21046;-75
2023/05/23 02:48:01;;;;;;;26.42;14.77;;;;;;;11.99;63.77;93714.97;4949314;28;20109;-75
2023/05/23 02:50:27;;;;;;;21.85;12.70;;;;;;;11.87;63.83;93696.25;4949996;28;20051;-74
2023/05/23 02:52:52;;;;;;;23.77;13.40;;;;;;;11.82;64.17;93708.97;4950143;28;20050;-74
2023/05/23 02:55:18;;;;;;;17.63;10.13;;;;;;;11.88;63.71;93723.69;4950275;28;20130;-73
2023/05/23 02:57:43;;;;;;;13.88;8.98;;;;;;;11.83;63.25;93694.56;4956651;28;20046;-75
2023/05/23 03:00:11;;;;;;;12.82;7.93;;;;;;;11.85;63.63;93703.78;4952784;28;20457;-74
2023/05/23 03:02:36;;;;;;;9.43;5.90;;;;;;;11.91;63.69;93717.69;4952024;28;20082;-75
2023/05/23 03:05:02;;;;;;;15.57;6.78;;;;;;;11.87;63.93;93720.22;4952808;28;20047;-74
2023/05/23 03:07:29;;;;;;;12.15;5.35;;;;;;;11.72;64.15;93710.13;4950648;28;20039;-76
2023/05/23 03:09:55;;;;;;;12.07;7.57;;;;;;;11.57;63.89;93710.69;4951743;28;20043;-74
2023/05/23 03:12:20;;;;;;;21.02;9.38;;;;;;;11.81;63.36;93728.72;4967674;28;20118;-75
2023/05/23 03:14:45;;;;;;;15.45;8.88;;;;;;;11.67;63.62;93707.66;4951152;28;20033;-76
2023/05/23 03:17:12;;;;;;;13.13;9.95;;;;;;;11.73;63.77;93722.34;4951055;28;20098;-75
2023/05/23 03:19:37;;;;;;;19.00;10.25;;;;;;;11.70;63.90;93719.53;4950352;28;20157;-74
2023/05/23 03:22:03;;;;;;;18.90;10.90;;;;;;;11.65;64.20;93707.19;4952331;28;20154;-76
2023/05/23 03:24:28;;;;;;;12.73;9.23;;;;;;;11.70;64.53;93725.66;4950816;28;20039;-74
2023/05/23 03:26:54;;;;;;;15.93;10.23;;;;;;;11.72;64.27;93726.13;4951085;28;20027;-75
2023/05/23 03:29:20;;;;;;;16.50;9.13;;;;;;;11.71;64.42;93729.88;4952611;28;20042;-73
2023/05/23 03:31:45;;;;;;;9.98;7.45;;;;;;;11.82;63.91;93728.41;4950915;28;20049;-74
2023/05/23 03:34:11;;;;;;;8.27;6.38;;;;;;;11.76;64.49;93728.91;4950312;28;20039;-73
2023/05/23 03:36:38;;;;;;;9.80;6.55;;;;;;;11.65;65.14;93720.50;4948246;28;20035;-75
2023/05/23 03:39:03;;;;;;;11.10;6.18;;;;;;;11.70;65.77;93741.63;4951264;28;20481;-75
2023/05/23 03:41:29;;;;;;;7.25;5.68;;;;;;;11.72;66.08;93747.44;4948995;28;20093;-73
2023/05/23 03:43:54;;;;;;;8.40;6.05;;;;;;;11.77;66.44;93744.59;4950158;28;20039;-75
2023/05/23 03:46:19;;;;;;;11.32;7.30;;;;;;;11.79;66.71;93746.91;4950421;28;20085;-75
2023/05/23 03:48:45;;;;;;;9.13;7.05;;;;;;;11.81;66.77;93745.50;4948712;28;20189;-75
2023/05/23 03:51:12;;;;;;;12.00;7.18;;;;;;;11.75;66.82;93730.78;4951427;28;20269;-74
2023/05/23 03:53:37;;;;;;;9.65;6.75;;;;;;;11.90;66.69;93745.44;4951997;28;20031;-75
2023/05/23 03:56:03;;;;;;;10.88;6.65;;;;;;;11.89;66.60;93731.34;4950041;28;20035;-74
2023/05/23 03:58:28;;;;;;;10.70;7.25;;;;;;;11.86;67.04;93734.66;4950002;28;20522;-74
2023/05/23 04:00:54;;;;;;;8.63;7.45;;;;;;;12.02;66.88;93756.22;4950167;28;20035;-75
2023/05/23 04:03:19;;;;;;;24.23;9.40;;;;;;;11.88;67.21;93735.09;4951362;28;20485;-75
2023/05/23 04:05:45;;;;;;;53.28;10.77;;;;;;;11.62;68.51;93726.47;4950242;28;20434;-74
2023/05/23 04:08:10;;;;;;;24.90;11.65;;;;;;;11.51;69.63;93719.94;4952192;28;20781;-75
2023/05/23 04:10:35;;;;;;;117.82;16.13;;;;;;;11.88;69.99;93755.66;4948993;28;20050;-73
2023/05/23 04:13:01;;;;;;;62.17;16.15;;;;;;;11.86;70.24;93739.19;4948595;28;20118;-73
2023/05/23 04:15:26;;;;;;;134.98;20.00;;;;;;;11.96;70.95;93752.94;4950088;28;20098;-75
2023/05/23 04:17:52;;;;;;;193.23;21.08;;;;;;;11.94;70.98;93747.13;4949450;28;20034;-74
2023/05/23 04:20:18;;;;;;;133.45;16.70;;;;;;;11.83;71.08;93729.94;4947916;28;20050;-75
2023/05/23 04:22:43;;;;;;;89.60;15.13;;;;;;;11.86;71.50;93742.66;4950173;28;20039;-75
2023/05/23 04:25:09;;;;;;;83.00;16.60;;;;;;;11.20;74.86;93740.72;4950555;28;20038;-75
2023/05/23 04:27:34;;;;;;;67.50;14.98;;;;;;;11.63;73.62;93744.03;4948669;28;20482;-75
2023/05/23 04:30:00;;;;;;;57.45;13.85;;;;;;;11.65;73.10;93736.47;4929806;28;21015;-75
2023/05/23 04:32:26;;;;;;;62.90;14.68;;;;;;;11.77;72.43;93739.25;4949797;28;20023;-75
2023/05/23 04:34:51;;;;;;;48.47;12.63;;;;;;;11.78;71.68;93719.50;4949443;28;20517;-75
2023/05/23 04:37:21;;;;;;;79.55;13.57;;;;;;;11.56;72.48;93727.75;4949662;28;20514;-73
2023/05/23 04:39:47;;;;;;;28.27;12.13;;;;;;;11.15;73.72;93726.47;4950266;28;20051;-74
2023/05/23 04:42:12;;;;;;;71.28;14.48;;;;;;;10.99;75.37;93752.06;4949555;28;20042;-75
2023/05/23 04:44:38;;;;;;;73.10;16.20;;;;;;;11.18;75.66;93743.69;4951301;28;20465;-74
2023/05/23 04:47:03;;;;;;;59.50;14.48;;;;;;;11.22;74.54;93718.00;4948312;28;20740;-75
2023/05/23 04:49:29;;;;;;;76.13;15.68;;;;;;;11.60;74.33;93764.09;4948656;28;20066;-75
2023/05/23 04:51:54;;;;;;;43.58;15.15;;;;;;;11.59;73.16;93767.06;4948718;28;20031;-75
2023/05/23 04:54:20;;;;;;;88.68;15.95;;;;;;;11.63;73.19;93767.22;4948554;28;20045;-75
2023/05/23 04:56:45;;;;;;;80.93;15.90;;;;;;;11.53;73.91;93771.81;4950920;28;20074;-74
2023/05/23 04:59:12;;;;;;;66.70;15.18;;;;;;;11.59;73.77;93769.72;4948899;28;20046;-74
2023/05/23 05:01:40;;;;;;;24.08;13.98;;;;;;;11.86;73.03;93777.28;4947475;28;20131;-74
2023/05/23 05:04:06;;;;;;;47.90;15.73;;;;;;;11.81;73.28;93764.16;4946641;28;20046;-74
2023/05/23 05:06:32;;;;;;;38.45;14.95;;;;;;;11.93;73.49;93774.88;4948499;28;20062;-74
2023/05/23 05:08:57;;;;;;;62.45;17.20;;;;;;;11.90;73.98;93758.78;4945559;28;20049;-74
2023/05/23 05:11:23;;;;;;;25.75;14.88;;;;;;;12.03;73.91;93773.75;4946787;28;20883;-74
2023/05/23 05:13:48;;;;;;;52.15;16.83;;;;;;;11.74;75.40;93773.72;4947042;28;22639;-72
2023/05/23 05:16:13;;;;;;;41.55;17.30;;;;;;;11.33;77.09;93771.69;4948468;28;20093;-73
2023/05/23 05:18:39;;;;;;;60.33;17.75;;;;;;;11.12;77.82;93756.38;4947917;28;20643;-75
2023/05/23 05:21:05;;;;;;;105.15;19.88;;;;;;;11.15;77.72;93784.25;4933359;28;20042;-74
2023/05/23 05:23:30;;;;;;;29.80;15.55;;;;;;;11.40;77.33;93777.28;4949143;28;20067;-75
2023/05/23 05:25:56;;;;;;;129.95;21.00;;;;;;;11.10;78.43;93779.88;4953615;28;20043;-75
2023/05/23 05:28:22;;;;;;;34.40;16.73;;;;;;;11.12;78.43;93744.97;4952145;28;20039;-74
2023/05/23 05:30:52;;;;;;;49.72;19.23;;;;;;;11.23;79.39;93780.00;4952076;28;20715;-75
2023/05/23 05:33:19;;;;;;;50.35;19.08;;;;;;;11.30;78.21;93756.31;4946144;28;20043;-75
2023/05/23 05:35:44;;;;;;;84.95;19.70;;;;;;;11.46;78.68;93778.69;4954515;28;20585;-75
2023/05/23 05:38:10;;;;;;;32.55;18.77;;;;;;;10.70;80.80;93754.59;4952208;28;20042;-74
2023/05/23 05:40:35;;;;;;;36.85;18.00;;;;;;;11.10;80.72;93763.16;4950590;28;20509;-74
2023/05/23 05:43:00;;;;;;;46.03;18.42;;;;;;;11.08;79.61;93744.03;4950128;28;20073;-74
2023/05/23 05:45:26;;;;;;;65.35;21.30;;;;;;;11.02;80.84;93788.66;4953313;28;20090;-75
2023/05/23 05:47:51;;;;;;;35.53;19.10;;;;;;;11.17;81.35;93785.50;4953403;28;20565;-72
2023/05/23 05:50:18;;;;;;;37.63;20.95;;;;;;;11.33;80.64;93792.97;4948338;28;20123;-74
2023/05/23 05:52:45;;;;;;;41.13;20.02;;;;;;;11.53;79.50;93792.34;4952830;28;20051;-74
2023/05/23 05:55:10;;;;;;;34.65;19.63;;;;;;;11.85;79.23;93789.06;4952338;28;20031;-74
2023/05/23 05:57:37;;;;;;;38.90;19.77;;;;;;;12.28;77.34;93799.47;4951565;28;20050;-75
2023/05/23 06:00:14;;;;;;;35.20;19.20;;;;;;;12.30;76.19;93794.59;4951554;28;20039;-75
2023/05/23 06:02:42;;;;;;;27.85;18.95;;;;;;;12.22;76.47;93786.66;4952908;28;20596;-76
2023/05/23 06:05:11;;;;;;;104.25;21.92;;;;;;;12.54;75.33;93787.84;4951804;28;20565;-75
2023/05/23 06:07:39;;;;;;;29.52;18.92;;;;;;;12.65;74.58;93789.06;4953732;28;21420;-75
2023/05/23 06:10:05;;;;;;;27.27;18.58;;;;;;;12.87;74.27;93781.47;4951741;28;20081;-74
2023/05/23 06:12:31;;;;;;;30.60;19.33;;;;;;;12.80;74.16;93783.13;4942836;28;20047;-73
2023/05/23 06:14:57;;;;;;;30.02;19.73;;;;;;;12.74;74.82;93790.53;4946189;28;20029;-76
2023/05/23 06:17:22;;;;;;;33.33;18.40;;;;;;;12.70;74.67;93770.19;4949321;28;20113;-74
2023/05/23 06:19:47;;;;;;;30.02;21.55;;;;;;;12.24;75.30;93763.09;4951728;28;20050;-75
2023/05/23 06:22:13;;;;;;;31.00;18.63;;;;;;;12.30;76.28;93802.59;4948421;28;20071;-75
2023/05/23 06:24:38;;;;;;;26.50;17.70;;;;;;;12.39;75.76;93805.22;4949771;28;20039;-74
2023/05/23 06:27:04;;;;;;;28.40;19.20;;;;;;;12.54;76.15;93799.31;4949558;28;20136;-74
2023/05/23 06:29:30;;;;;;;28.23;20.42;;;;;;;12.77;74.98;93783.75;4949989;28;20038;-75
2023/05/23 06:31:56;;;;;;;30.73;21.35;;;;;;;12.55;75.83;93800.09;4948072;28;20101;-75
2023/05/23 06:34:21;;;;;;;31.92;21.23;;;;;;;12.00;78.18;93769.06;4948863;28;20410;-75
2023/05/23 06:36:47;;;;;;;28.65;20.77;;;;;;;12.73;76.49;93806.88;4947500;28;20070;-75
2023/05/23 06:39:12;;;;;;;30.90;21.55;;;;;;;12.76;74.97;93801.66;4948622;28;20038;-74
2023/05/23 06:41:38;;;;;;;32.35;21.45;;;;;;;12.28;77.36;93807.47;4947953;28;20043;-75
2023/05/23 06:44:04;;;;;;;34.40;21.55;;;;;;;11.97;77.70;93786.50;4950992;28;20073;-74
2023/05/23 06:46:29;;;;;;;28.75;21.48;;;;;;;12.55;76.04;93784.88;4949500;28;20126;-74
2023/05/23 06:48:55;;;;;;;35.72;22.70;;;;;;;12.43;77.49;93761.56;4937608;28;20037;-74
2023/05/23 06:51:20;;;;;;;28.98;20.83;;;;;;;12.42;78.45;93788.53;4951085;28;20060;-75
2023/05/23 06:53:46;;;;;;;35.67;20.98;;;;;;;12.94;77.04;93785.50;4950979;28;20027;-75
2023/05/23 06:56:11;;;;;;;32.17;21.10;;;;;;;13.05;76.88;93770.66;4950821;28;20043;-75
2023/05/23 06:58:36;;;;;;;37.67;21.85;;;;;;;13.47;76.69;93784.66;4951222;28;20039;-74
2023/05/23 07:01:02;;;;;;;30.63;20.40;;;;;;;13.53;75.04;93759.28;4950806;28;20039;-75
2023/05/23 07:03:27;;;;;;;30.60;19.58;;;;;;;13.63;75.35;93775.72;4950718;28;20523;-75
2023/05/23 07:05:53;;;;;;;30.85;19.75;;;;;;;13.45;76.21;93776.19;4931525;28;20031;-75
2023/05/23 07:08:18;;;;;;;29.10;19.58;;;;;;;13.58;75.26;93773.22;4952943;28;20915;-75
2023/05/23 07:10:43;;;;;;;30.73;16.67;;;;;;;13.84;75.29;93774.84;4949076;28;20102;-75
2023/05/23 07:13:09;;;;;;;30.23;19.38;;;;;;;13.94;73.42;93779.72;4949854;28;20074;-75
2023/05/23 07:15:34;;;;;;;23.33;17.70;;;;;;;14.23;73.09;93768.03;4951311;28;20489;-75
2023/05/23 07:18:00;;;;;;;28.75;18.05;;;;;;;14.45;73.11;93757.59;4950161;28;20817;-73
2023/05/23 07:20:25;;;;;;;32.50;18.27;;;;;;;14.71;71.26;93761.81;4967602;28;20120;-74
2023/05/23 07:22:51;;;;;;;26.30;16.20;;;;;;;14.68;71.01;93754.44;4943402;28;20078;-74
2023/05/23 07:25:17;;;;;;;26.80;17.45;;;;;;;14.77;71.02;93757.75;4939955;28;20066;-75
2023/05/23 07:27:43;;;;;;;29.45;19.02;;;;;;;14.82;71.41;93752.94;4949349;28;20047;-75
2023/05/23 07:30:08;;;;;;;25.70;16.05;;;;;;;14.99;69.33;93743.84;4949429;28;20027;-75
2023/05/23 07:32:35;;;;;;;22.95;15.68;;;;;;;14.93;69.26;93739.84;4950203;28;20078;-75
2023/05/23 07:35:00;;;;;;;24.35;14.23;;;;;;;15.10;68.88;93750.28;4948784;28;20201;-75
2023/05/23 07:37:26;;;;;;;19.52;12.93;;;;;;;14.96;68.92;93712.41;4948852;28;20043;-75
2023/05/23 07:39:54;;;;;;;21.88;12.93;;;;;;;14.78;68.84;93735.22;4950156;28;20054;-73
2023/05/23 07:42:20;;;;;;;19.27;12.88;;;;;;;15.16;68.64;93748.88;4949686;28;20043;-74
2023/05/23 07:44:45;;;;;;;18.60;13.77;;;;;;;15.26;68.14;93743.03;4952695;28;20029;-75
2023/05/23 07:47:10;;;;;;;29.17;15.13;;;;;;;15.32;67.86;93744.34;4949535;28;20035;-75
2023/05/23 07:49:36;;;;;;;28.13;15.50;;;;;;;15.34;67.64;93744.78;4951037;28;20115;-74
2023/05/23 07:52:01;;;;;;;25.88;18.02;;;;;;;15.34;68.67;93733.28;4950203;28;20066;-76
2023/05/23 07:54:27;;;;;;;26.20;17.05;;;;;;;15.38;68.05;93737.59;4951046;28;20039;-76
2023/05/23 07:56:53;;;;;;;29.38;18.50;;;;;;;15.68;65.66;93735.31;4950408;28;20671;-75
2023/05/23 07:59:19;;;;;;;25.35;14.55;;;;;;;15.58;64.30;93732.38;4948104;28;20043;-73
2023/05/23 08:01:44;;;;;;;24.65;14.02;;;;;;;15.82;65.15;93742.91;4951124;28;20074;-75
2023/05/23 08:04:10;;;;;;;23.50;16.52;;;;;;;15.84;66.12;93738.00;4949219;28;20506;-74
2023/05/23 08:06:36;;;;;;;25.65;16.27;;;;;;;16.06;66.30;93731.97;4949912;28;20046;-74
2023/05/23 08:09:02;;;;;;;19.10;10.55;;;;;;;16.12;62.87;93725.22;4949982;28;20053;-74
2023/05/23 08:11:29;;;;;;;18.08;11.65;;;;;;;16.01;62.82;93721.53;4950016;28;20089;-75
2023/05/23 08:13:54;;;;;;;18.00;11.30;;;;;;;16.24;62.07;93724.31;4949616;28;20043;-75
2023/05/23 08:16:20;;;;;;;24.63;12.50;;;;;;;16.28;63.76;93731.31;4951990;28;20502;-74
2023/05/23 08:18:45;;;;;;;21.85;11.63;;;;;;;16.05;62.30;93727.75;4952824;28;20039;-74
2023/05/23 08:21:11;;;;;;;21.38;12.48;;;;;;;16.06;61.08;93715.09;4951866;28;20031;-74
2023/05/23 08:23:36;;;;;;;28.48;12.80;;;;;;;16.35;63.49;93735.31;4951052;28;20118;-74
2023/05/23 08:26:02;;;;;;;21.05;14.52;;;;;;;16.23;62.58;93731.59;4951128;28;20520;-73
2023/05/23 08:28:27;;;;;;;27.67;15.48;;;;;;;16.04;62.36;93712.75;4949108;28;20059;-74
2023/05/23 08:30:53;;;;;;;31.63;15.23;;;;;;;16.26;63.50;93728.22;4951010;28;20121;-74
2023/05/23 08:33:18;;;;;;;20.27;14.18;;;;;;;16.33;62.62;93720.34;4949507;28;20039;-74
2023/05/23 08:35:44;;;;;;;22.98;15.18;;;;;;;16.60;62.75;93718.63;4949081;28;20046;-73
2023/05/23 08:38:09;;;;;;;23.88;14.02;;;;;;;16.29;62.97;93732.09;4950084;28;20038;-75
2023/05/23 08:40:35;;;;;;;24.38;13.05;;;;;;;16.69;61.74;93727.22;4948831;28;20585;-73
2023/05/23 08:43:02;;;;;;;17.75;13.25;;;;;;;16.59;61.45;93724.31;4949078;28;20053;-74
2023/05/23 08:45:30;;;;;;;26.92;12.13;;;;;;;16.75;60.16;93725.03;4946813;28;20890;-72
2023/05/23 08:47:59;;;;;;;17.90;11.00;;;;;;;16.73;58.91;93711.19;4952337;28;20092;-74
2023/05/23 08:50:27;;;;;;;26.52;10.85;;;;;;;16.51;58.81;93710.00;4945456;28;20496;-72
2023/05/23 08:52:58;;;;;;;21.40;11.32;;;;;;;16.74;59.54;93723.47;4949191;28;20039;-73
2023/05/23 08:55:27;;;;;;;15.05;10.07;;;;;;;16.49;60.39;93711.47;4946694;28;20135;-74
2023/05/23 08:57:54;;;;;;;17.70;11.30;;;;;;;16.41;61.30;93712.44;4950906;28;20062;-75
2023/05/23 09:00:21;;;;;;;17.10;11.73;;;;;;;16.52;59.58;93719.59;4949987;28;20691;-75
2023/05/23 09:02:47;;;;;;;14.52;9.18;;;;;;;16.59;60.10;93705.53;4951361;28;20763;-75
2023/05/23 09:05:13;;;;;;;20.38;9.45;;;;;;;16.89;58.07;93703.84;4950392;28;20043;-73
2023/05/23 09:07:39;;;;;;;10.85;7.60;;;;;;;16.80;55.04;93707.88;4947725;28;20043;-74
2023/05/23 09:10:09;;;;;;;8.88;4.55;;;;;;;16.81;49.01;93715.59;4956168;28;20532;-75
2023/05/23 09:12:36;;;;;;;11.45;5.57;;;;;;;16.70;49.78;93715.38;4945399;28;20039;-74
2023/05/23 09:15:06;;;;;;;11.63;6.82;;;;;;;16.56;51.65;93695.50;4964283;28;20070;-75
2023/05/23 09:17:32;;;;;;;14.18;6.20;;;;;;;17.13;51.90;93710.81;4948789;28;20156;-75
2023/05/23 09:19:59;;;;;;;10.63;5.47;;;;;;;17.08;53.19;93705.72;4949440;28;20050;-74
2023/05/23 09:22:25;;;;;;;8.85;4.78;;;;;;;16.61;49.03;93714.03;4948274;28;20062;-74
2023/05/23 09:24:52;;;;;;;7.25;4.22;;;;;;;16.65;49.18;93709.50;4948872;28;20070;-73
2023/05/23 09:27:18;;;;;;;8.63;4.57;;;;;;;16.87;49.76;93703.41;4950522;28;20039;-74
2023/05/23 09:29:46;;;;;;;5.82;4.72;;;;;;;16.97;48.85;93678.66;4950584;28;20865;-74
2023/05/23 09:32:13;;;;;;;5.20;3.95;;;;;;;16.57;48.50;93692.47;4953315;28;20042;-75
2023/05/23 09:34:53;;;;;;;7.38;3.97;;;;;;;16.41;47.22;93712.44;4946922;28;20600;-75
2023/05/23 09:37:23;;;;;;;6.78;4.72;;;;;;;16.53;47.59;93664.75;4950253;28;20030;-74
2023/05/23 09:39:49;;;;;;;6.68;4.35;;;;;;;16.79;47.01;93695.56;4948141;28;20101;-74
2023/05/23 09:42:20;;;;;;;9.75;4.80;;;;;;;16.86;47.72;93683.06;4949747;28;20223;-73
2023/05/23 09:44:46;;;;;;;6.65;3.78;;;;;;;17.00;45.84;93695.97;4949253;28;20090;-75
2023/05/23 09:47:11;;;;;;;6.03;4.35;;;;;;;16.85;47.42;93694.16;4947045;28;20038;-75
2023/05/23 09:49:40;;;;;;;7.15;3.97;;;;;;;16.60;46.88;93688.31;4946781;28;20046;-73
2023/05/23 09:52:06;;;;;;;6.03;4.57;;;;;;;16.90;44.59;93677.75;4942115;28;20082;-74
2023/05/23 09:54:31;;;;;;;7.93;3.95;;;;;;;16.75;45.24;93688.22;4940656;28;20126;-75
2023/05/23 09:57:00;;;;;;;7.38;5.00;;;;;;;16.70;45.81;93677.00;4944326;28;20486;-75
2023/05/23 09:59:33;;;;;;;9.30;3.63;;;;;;;16.71;45.72;93678.56;4938245;28;20501;-74
2023/05/23 10:02:02;;;;;;;7.38;4.13;;;;;;;17.03;45.58;93677.22;4941196;28;20565;-73
2023/05/23 10:04:33;;;;;;;4.30;3.65;;;;;;;17.00;45.70;93677.97;4945384;28;20090;-75
2023/05/23 10:07:09;;;;;;;7.95;3.47;;;;;;;16.70;43.69;93671.63;4956629;28;20043;-73
2023/05/23 10:09:39;;;;;;;10.70;3.95;;;;;;;16.58;45.32;93694.00;4943150;28;20399;-75
2023/05/23 10:12:41;;;;;;;8.85;4.40;;;;;;;16.77;45.88;93684.41;4943168;28;20145;-74
2023/05/23 10:15:09;;;;;;;8.00;3.95;;;;;;;16.93;43.10;93682.41;4934213;28;20545;-74
2023/05/23 10:17:52;;;;;;;4.95;3.30;;;;;;;17.14;42.96;93672.88;4946713;28;20739;-73
2023/05/23 10:20:23;;;;;;;4.18;3.60;;;;;;;17.12;43.02;93672.41;4959728;28;20044;-73
2023/05/23 10:22:49;;;;;;;7.10;4.07;;;;;;;17.21;43.71;93671.44;4944844;28;20039;-75
2023/05/23 10:25:15;;;;;;;7.20;3.50;;;;;;;17.20;43.29;93669.88;4943272;28;20506;-74
2023/05/23 10:27:41;;;;;;;7.53;3.75;;;;;;;17.06;43.75;93665.00;4950486;28;20515;-74
2023/05/23 10:30:08;;;;;;;4.93;3.60;;;;;;;17.18;42.96;93679.06;4944491;28;20520;-75
2023/05/23 10:32:35;;;;;;;9.93;4.45;;;;;;;17.10;42.41;93649.72;4944177;28;20085;-74
2023/05/23 10:35:14;;;;;;;7.32;3.92;;;;;;;17.41;43.72;93672.91;4942636;28;20057;-75
2023/05/23 10:37:58;;;;;;;8.18;3.22;;;;;;;17.58;42.75;93664.38;4944041;28;20066;-74
2023/05/23 10:40:23;;;;;;;8.68;3.33;;;;;;;17.60;41.35;93667.47;4941143;28;20072;-75
2023/05/23 10:43:01;;;;;;;5.82;3.20;;;;;;;17.85;43.10;93663.25;4943185;28;20046;-74
2023/05/23 10:45:26;;;;;;;10.68;4.13;;;;;;;17.63;42.23;93645.25;4941574;28;20035;-75
2023/05/23 10:47:52;;;;;;;6.65;3.70;;;;;;;18.09;45.91;93647.88;4940778;28;20504;-73
2023/05/23 10:50:31;;;;;;;4.97;3.05;;;;;;;18.22;43.49;93655.34;4946140;28;20326;-73
2023/05/23 10:52:58;;;;;;;5.88;3.60;;;;;;;18.18;41.06;93648.38;4939112;28;20174;-74
2023/05/23 10:55:23;;;;;;;5.00;3.63;;;;;;;17.56;42.06;93658.56;4941496;28;20051;-74
2023/05/23 10:58:19;;;;;;;4.55;3.33;;;;;;;17.77;41.14;93650.84;4941915;28;20039;-73
2023/05/23 11:00:55;;;;;;;7.90;3.88;;;;;;;17.67;48.00;93651.44;4955231;28;20090;-73
2023/05/23 11:03:48;;;;;;;7.30;3.83;;;;;;;17.99;42.79;93646.59;4954285;28;20046;-73
2023/05/23 11:06:37;;;;;;;5.82;3.88;;;;;;;18.06;41.75;93645.88;4950196;28;20237;-74
2023/05/23 11:09:12;;;;;;;8.00;3.35;;;;;;;17.88;43.46;93640.22;4947580;28;20658;-73
2023/05/23 11:11:52;;;;;;;5.78;3.20;;;;;;;18.10;43.80;93639.41;4952341;28;20046;-74
2023/05/23 11:14:38;;;;;;;7.93;4.10;;;;;;;18.52;42.74;93636.50;4951141;28;20117;-74
2023/05/23 11:17:18;;;;;;;4.22;2.90;;;;;;;17.83;40.77;93648.63;4941880;28;20524;-73
2023/05/23 11:20:04;;;;;;;4.45;3.08;;;;;;;18.01;40.93;93638.91;4952678;28;20047;-74
2023/05/23 11:22:31;;;;;;;4.60;3.47;;;;;;;18.10;39.60;93638.63;4951901;28;20046;-74